createdAt,value
2017-01-11T00:00:03.175Z,0
2017-01-11T00:01:13.058Z,0
2017-01-11T00:02:22.881Z,0
2017-01-11T00:03:32.876Z,0
2017-01-11T00:04:43.230Z,0
2017-01-11T00:05:52.670Z,0
2017-01-11T00:07:02.491Z,0
2017-01-11T00:08:12.732Z,0
2017-01-11T00:09:22.976Z,0
2017-01-11T00:10:32.829Z,0
2017-01-11T00:11:42.673Z,0
2017-01-11T00:12:52.922Z,0
2017-01-11T00:14:03.207Z,0
2017-01-11T00:15:13.475Z,0
2017-01-11T00:16:23.324Z,0
2017-01-11T00:17:33.633Z,0
2017-01-11T00:18:43.547Z,0
2017-01-11T00:19:53.866Z,0
2017-01-11T00:21:03.769Z,0
2017-01-11T00:22:14.009Z,0
2017-01-11T00:23:23.851Z,0
2017-01-11T00:24:33.760Z,0
2017-01-11T00:25:43.587Z,0
2017-01-11T00:26:53.810Z,0
2017-01-11T00:28:03.725Z,0
2017-01-11T00:29:13.150Z,0
2017-01-11T00:30:23.506Z,0
2017-01-11T00:31:33.773Z,0
2017-01-11T00:32:44.059Z,0
2017-01-11T00:33:54.359Z,0
2017-01-11T00:35:04.705Z,0
2017-01-11T00:36:14.998Z,0
2017-01-11T00:37:24.844Z,0
2017-01-11T00:38:35.071Z,0
2017-01-11T00:39:45.361Z,0
2017-01-11T00:40:55.212Z,0
2017-01-11T00:42:05.224Z,0
2017-01-11T00:43:15.550Z,0
2017-01-11T00:44:25.471Z,0
2017-01-11T00:45:35.420Z,0
2017-01-11T00:46:45.254Z,0
2017-01-11T00:47:55.521Z,0
2017-01-11T00:49:05.760Z,0
2017-01-11T00:50:14.908Z,0
2017-01-11T00:51:24.740Z,0
2017-01-11T00:52:35.012Z,0
2017-01-11T00:53:45.251Z,0
2017-01-11T00:54:55.484Z,0
2017-01-11T00:56:05.744Z,0
2017-01-11T00:57:15.672Z,0
2017-01-11T00:58:25.936Z,0
2017-01-11T00:59:35.810Z,0
2017-01-11T01:00:46.046Z,0
2017-01-11T01:01:56.376Z,0
2017-01-11T01:03:06.619Z,0
2017-01-11T01:04:16.938Z,0
2017-01-11T01:05:27.304Z,0
2017-01-11T01:06:37.527Z,0
2017-01-11T01:07:47.795Z,0
2017-01-11T01:08:58.033Z,0
2017-01-11T01:10:07.462Z,0
2017-01-11T01:11:17.286Z,0
2017-01-11T01:12:27.536Z,0
2017-01-11T01:13:37.429Z,0
2017-01-11T01:14:47.326Z,0
2017-01-11T01:15:57.320Z,0
2017-01-11T01:17:07.564Z,0
2017-01-11T01:18:17.912Z,0
2017-01-11T01:19:28.200Z,0
2017-01-11T01:20:38.452Z,0
2017-01-11T01:21:48.353Z,0
2017-01-11T01:22:58.597Z,0
2017-01-11T01:24:08.492Z,0
2017-01-11T01:25:18.737Z,0
2017-01-11T01:26:28.584Z,0
2017-01-11T01:27:38.950Z,0
2017-01-11T01:28:49.171Z,0
2017-01-11T01:29:59.480Z,0
2017-01-11T01:31:09.759Z,0
2017-01-11T01:32:20.178Z,0
2017-01-11T01:33:30.038Z,0
2017-01-11T01:34:39.860Z,0
2017-01-11T01:35:50.129Z,0
2017-01-11T01:36:59.994Z,0
2017-01-11T01:38:09.876Z,0
2017-01-11T01:39:19.299Z,0
2017-01-11T01:40:29.641Z,0
2017-01-11T01:41:39.913Z,0
2017-01-11T01:42:50.199Z,0
2017-01-11T01:44:00.035Z,0
2017-01-11T01:45:09.857Z,0
2017-01-11T01:46:20.114Z,0
2017-01-11T01:47:30.377Z,0
2017-01-11T01:48:40.726Z,0
2017-01-11T01:49:50.612Z,0
2017-01-11T01:51:00.856Z,0
2017-01-11T01:52:11.095Z,0
2017-01-11T01:53:21.329Z,0
2017-01-11T01:54:31.172Z,0
2017-01-11T01:55:40.588Z,0
2017-01-11T01:56:50.950Z,0
2017-01-11T01:58:01.242Z,0
2017-01-11T01:59:11.500Z,0
2017-01-11T02:00:21.734Z,0
2017-01-11T02:01:31.561Z,0
2017-01-11T02:02:41.490Z,0
2017-01-11T02:03:51.787Z,0
2017-01-11T02:05:01.664Z,0
2017-01-11T02:06:11.113Z,0
2017-01-11T02:07:20.948Z,0
2017-01-11T02:08:31.189Z,0
2017-01-11T02:09:41.439Z,0
2017-01-11T02:10:51.811Z,0
2017-01-11T02:12:01.668Z,0
2017-01-11T02:13:11.602Z,0
2017-01-11T02:14:21.828Z,0
2017-01-11T02:15:32.112Z,0
2017-01-11T02:16:42.553Z,0
2017-01-11T02:17:52.839Z,0
2017-01-11T02:19:02.673Z,0
2017-01-11T02:20:12.933Z,0
2017-01-11T02:21:23.151Z,0
2017-01-11T02:22:33.377Z,0
2017-01-11T02:23:43.760Z,0
2017-01-11T02:24:54.050Z,0
2017-01-11T02:26:04.287Z,0
2017-01-11T02:27:14.198Z,0
2017-01-11T02:28:24.028Z,0
2017-01-11T02:29:33.905Z,0
2017-01-11T02:30:43.742Z,0
2017-01-11T02:31:53.999Z,0
2017-01-11T02:33:03.854Z,0
2017-01-11T02:34:13.680Z,0
2017-01-11T02:35:23.522Z,0
2017-01-11T02:36:33.861Z,0
2017-01-11T02:37:44.148Z,0
2017-01-11T02:38:54.430Z,0
2017-01-11T02:40:04.320Z,0
2017-01-11T02:41:14.174Z,0
2017-01-11T02:42:24.410Z,0
2017-01-11T02:43:34.322Z,0
2017-01-11T02:44:44.384Z,0
2017-01-11T02:45:53.834Z,0
2017-01-11T02:47:04.103Z,0
2017-01-11T02:48:13.930Z,0
2017-01-11T02:49:23.759Z,0
2017-01-11T02:50:33.987Z,0
2017-01-11T02:51:44.537Z,0
2017-01-11T02:52:54.771Z,0
2017-01-11T02:54:05.152Z,0
2017-01-11T02:55:15.512Z,0
2017-01-11T02:56:25.795Z,0
2017-01-11T02:57:36.017Z,0
2017-01-11T02:58:46.233Z,0
2017-01-11T02:59:56.646Z,0
2017-01-11T03:01:06.490Z,0
2017-01-11T03:02:16.755Z,0
2017-01-11T03:03:27.187Z,0
2017-01-11T03:04:37.020Z,0
2017-01-11T03:05:47.313Z,0
2017-01-11T03:06:57.600Z,0
2017-01-11T03:08:07.871Z,0
2017-01-11T03:09:18.351Z,0
2017-01-11T03:10:28.200Z,0
2017-01-11T03:11:38.533Z,0
2017-01-11T03:12:48.778Z,0
2017-01-11T03:13:59.021Z,0
2017-01-11T03:15:09.259Z,0
2017-01-11T03:16:19.524Z,0
2017-01-11T03:17:29.891Z,0
2017-01-11T03:18:39.800Z,0
2017-01-11T03:19:49.645Z,0
2017-01-11T03:20:59.105Z,0
2017-01-11T03:22:08.936Z,0
2017-01-11T03:23:19.287Z,0
2017-01-11T03:24:29.607Z,0
2017-01-11T03:25:39.459Z,0
2017-01-11T03:26:48.878Z,0
2017-01-11T03:27:59.278Z,0
2017-01-11T03:29:08.731Z,0
2017-01-11T03:30:18.990Z,0
2017-01-11T03:31:29.235Z,0
2017-01-11T03:32:38.732Z,0
2017-01-11T03:33:49.057Z,0
2017-01-11T03:34:58.902Z,0
2017-01-11T03:36:08.724Z,0
2017-01-11T03:37:17.817Z,0
2017-01-11T03:38:27.247Z,0
2017-01-11T03:39:37.132Z,0
2017-01-11T03:40:47.461Z,0
2017-01-11T03:41:56.935Z,0
2017-01-11T03:43:06.780Z,0
2017-01-11T03:44:17.054Z,0
2017-01-11T03:45:26.906Z,0
2017-01-11T03:46:36.744Z,0
2017-01-11T03:47:46.580Z,0
2017-01-11T03:48:56.835Z,0
2017-01-11T03:50:07.075Z,0
2017-01-11T03:51:17.380Z,0
2017-01-11T03:52:27.213Z,0
2017-01-11T03:53:37.059Z,0
2017-01-11T03:54:47.359Z,0
2017-01-11T03:55:57.648Z,0
2017-01-11T03:57:07.261Z,0
2017-01-11T03:58:17.490Z,0
2017-01-11T03:59:27.753Z,0
2017-01-11T04:00:38.090Z,0
2017-01-11T04:01:48.364Z,0
2017-01-11T04:02:58.186Z,0
2017-01-11T04:04:08.020Z,0
2017-01-11T04:05:17.868Z,0
2017-01-11T04:06:28.141Z,0
2017-01-11T04:07:38.386Z,0
2017-01-11T04:08:48.648Z,0
2017-01-11T04:09:58.922Z,0
2017-01-11T04:11:09.250Z,0
2017-01-11T04:12:18.672Z,0
2017-01-11T04:13:29.154Z,0
2017-01-11T04:14:39.396Z,0
2017-01-11T04:15:49.249Z,0
2017-01-11T04:16:59.511Z,0
2017-01-11T04:18:09.749Z,0
2017-01-11T04:19:20.018Z,0
2017-01-11T04:20:30.270Z,0
2017-01-11T04:21:40.542Z,0
2017-01-11T04:22:50.797Z,0
2017-01-11T04:24:00.633Z,0
2017-01-11T04:25:10.555Z,0
2017-01-11T04:26:20.831Z,0
2017-01-11T04:27:30.263Z,0
2017-01-11T04:28:40.080Z,0
2017-01-11T04:29:50.373Z,0
2017-01-11T04:31:00.635Z,0
2017-01-11T04:32:10.913Z,0
2017-01-11T04:33:21.182Z,0
2017-01-11T04:34:31.041Z,0
2017-01-11T04:35:40.920Z,0
2017-01-11T04:36:51.155Z,0
2017-01-11T04:38:01.432Z,0
2017-01-11T04:39:11.755Z,0
2017-01-11T04:40:21.590Z,0
2017-01-11T04:41:31.860Z,0
2017-01-11T04:42:42.114Z,0
2017-01-11T04:43:51.950Z,0
2017-01-11T04:45:02.210Z,0
2017-01-11T04:46:12.427Z,0
2017-01-11T04:47:21.852Z,0
2017-01-11T04:48:32.137Z,0
2017-01-11T04:49:42.512Z,0
2017-01-11T04:50:52.360Z,0
2017-01-11T04:52:02.200Z,0
2017-01-11T04:53:12.440Z,0
2017-01-11T04:54:22.305Z,0
2017-01-11T04:55:32.538Z,0
2017-01-11T04:56:42.464Z,0
2017-01-11T04:57:52.827Z,0
2017-01-11T04:59:03.088Z,0
2017-01-11T05:00:12.936Z,0
2017-01-11T05:01:22.351Z,0
2017-01-11T05:02:32.626Z,0
2017-01-11T05:03:42.451Z,0
2017-01-11T05:04:52.722Z,0
2017-01-11T05:06:03.052Z,0
2017-01-11T05:07:13.283Z,0
2017-01-11T05:08:23.221Z,0
2017-01-11T05:09:33.061Z,0
2017-01-11T05:10:43.343Z,0
2017-01-11T05:11:53.584Z,0
2017-01-11T05:13:03.798Z,0
2017-01-11T05:14:14.019Z,0
2017-01-11T05:15:23.467Z,0
2017-01-11T05:16:33.285Z,0
2017-01-11T05:17:43.635Z,0
2017-01-11T05:18:53.918Z,0
2017-01-11T05:20:04.154Z,0
2017-01-11T05:21:14.079Z,0
2017-01-11T05:22:23.911Z,0
2017-01-11T05:23:34.149Z,0
2017-01-11T05:24:43.976Z,0
2017-01-11T05:25:54.281Z,0
2017-01-11T05:27:04.604Z,0
2017-01-11T05:28:14.909Z,0
2017-01-11T05:29:25.150Z,0
2017-01-11T05:30:34.998Z,0
2017-01-11T05:31:45.245Z,0
2017-01-11T05:32:55.092Z,0
2017-01-11T05:34:05.497Z,0
2017-01-11T05:35:15.462Z,0
2017-01-11T05:36:25.839Z,0
2017-01-11T05:37:36.261Z,0
2017-01-11T05:38:46.199Z,0
2017-01-11T05:39:56.021Z,0
2017-01-11T05:41:05.955Z,0
2017-01-11T05:42:15.798Z,0
2017-01-11T05:43:26.244Z,0
2017-01-11T05:44:36.531Z,0
2017-01-11T05:45:46.532Z,0
2017-01-11T05:46:56.833Z,0
2017-01-11T05:48:06.705Z,0
2017-01-11T05:49:16.569Z,0
2017-01-11T05:50:26.582Z,0
2017-01-11T05:51:36.829Z,0
2017-01-11T05:52:46.266Z,0
2017-01-11T05:53:56.095Z,0
2017-01-11T05:55:06.332Z,0
2017-01-11T05:56:16.155Z,0
2017-01-11T05:57:26.679Z,0
2017-01-11T05:58:36.103Z,0
2017-01-11T05:59:46.342Z,0
2017-01-11T06:00:56.166Z,0
2017-01-11T06:02:06.124Z,0
2017-01-11T06:03:15.968Z,0
2017-01-11T06:04:26.270Z,0
2017-01-11T06:05:36.183Z,0
2017-01-11T06:06:46.470Z,0
2017-01-11T06:07:56.733Z,0
2017-01-11T06:09:06.568Z,0
2017-01-11T06:10:16.813Z,0
2017-01-11T06:11:27.043Z,0
2017-01-11T06:12:37.273Z,0
2017-01-11T06:13:47.113Z,0
2017-01-11T06:14:56.652Z,0
2017-01-11T06:16:06.887Z,0
2017-01-11T06:17:16.993Z,0
2017-01-11T06:18:27.227Z,0
2017-01-11T06:19:37.118Z,0
2017-01-11T06:20:46.948Z,0
2017-01-11T06:21:57.178Z,0
2017-01-11T06:23:07.605Z,0
2017-01-11T06:24:17.488Z,0
2017-01-11T06:25:27.401Z,0
2017-01-11T06:26:37.221Z,0
2017-01-11T06:27:47.093Z,0
2017-01-11T06:28:57.370Z,0
2017-01-11T06:30:07.606Z,0
2017-01-11T06:31:17.867Z,0
2017-01-11T06:32:27.798Z,0
2017-01-11T06:33:37.251Z,0
2017-01-11T06:34:47.647Z,0
2017-01-11T06:35:57.872Z,0
2017-01-11T06:37:08.087Z,0
2017-01-11T06:38:18.342Z,0
2017-01-11T06:39:28.645Z,0
2017-01-11T06:40:38.522Z,0
2017-01-11T06:41:49.021Z,0
2017-01-11T06:42:59.342Z,0
2017-01-11T06:44:09.576Z,0
2017-01-11T06:45:19.796Z,0
2017-01-11T06:46:30.141Z,0
2017-01-11T06:47:40.416Z,0
2017-01-11T06:48:50.654Z,0
2017-01-11T06:50:00.513Z,0
2017-01-11T06:51:10.809Z,0
2017-01-11T06:52:20.648Z,0
2017-01-11T06:53:30.476Z,0
2017-01-11T06:54:40.703Z,0
2017-01-11T06:55:50.571Z,0
2017-01-11T06:57:00.800Z,0
2017-01-11T06:58:10.690Z,0
2017-01-11T06:59:21.053Z,0
2017-01-11T07:00:31.298Z,0
2017-01-11T07:01:41.316Z,0
2017-01-11T07:02:51.541Z,0
2017-01-11T07:04:01.395Z,5
2017-01-11T07:05:11.634Z,5
2017-01-11T07:06:21.494Z,5
2017-01-11T07:07:31.744Z,5
2017-01-11T07:08:42.047Z,5
2017-01-11T07:09:52.048Z,5
2017-01-11T07:11:02.309Z,5
2017-01-11T07:13:38.545Z,10
2017-01-11T07:14:48.811Z,10
2017-01-11T07:15:58.750Z,10
2017-01-11T07:17:08.614Z,10
2017-01-11T07:18:18.455Z,10
2017-01-11T07:19:28.719Z,10
2017-01-11T07:20:38.945Z,10
2017-01-11T07:21:48.846Z,10
2017-01-11T07:22:59.186Z,10
2017-01-11T07:24:09.473Z,15
2017-01-11T07:25:19.722Z,15
2017-01-11T07:26:30.023Z,15
2017-01-11T07:27:39.850Z,20
2017-01-11T07:28:49.682Z,20
2017-01-11T07:29:59.710Z,25
2017-01-11T07:31:09.953Z,25
2017-01-11T07:32:20.193Z,30
2017-01-11T07:33:30.024Z,30
2017-01-11T07:34:40.310Z,35
2017-01-11T07:35:50.217Z,35
2017-01-11T07:37:00.572Z,40
2017-01-11T07:38:10.809Z,45
2017-01-11T07:39:20.782Z,50
2017-01-11T07:40:31.017Z,55
2017-01-11T07:41:41.251Z,60
2017-01-11T07:42:51.082Z,65
2017-01-11T07:44:01.305Z,70
2017-01-11T07:45:11.579Z,80
2017-01-11T07:46:21.459Z,85
2017-01-11T07:47:31.786Z,85
2017-01-11T07:48:42.072Z,85
2017-01-11T07:49:52.393Z,80
2017-01-11T07:51:02.671Z,65
2017-01-11T07:52:13.007Z,60
2017-01-11T07:53:23.239Z,55
2017-01-11T07:54:32.807Z,55
2017-01-11T07:55:43.075Z,55
2017-01-11T07:56:53.362Z,55
2017-01-11T07:58:03.643Z,55
2017-01-11T07:59:13.123Z,60
2017-01-11T08:00:23.344Z,60
2017-01-11T08:01:33.201Z,65
2017-01-11T08:02:43.088Z,65
2017-01-11T08:03:53.498Z,65
2017-01-11T08:05:03.730Z,70
2017-01-11T08:06:13.617Z,70
2017-01-11T08:07:23.876Z,70
2017-01-11T08:08:33.702Z,75
2017-01-11T08:09:43.991Z,80
2017-01-11T08:10:54.255Z,80
2017-01-11T08:12:03.277Z,90
2017-01-11T08:13:13.517Z,85
2017-01-11T08:14:22.996Z,80
2017-01-11T08:15:32.868Z,75
2017-01-11T08:16:42.353Z,80
2017-01-11T08:17:52.182Z,85
2017-01-11T08:19:02.417Z,95
2017-01-11T08:20:12.714Z,110
2017-01-11T08:21:22.947Z,115
2017-01-11T08:22:33.188Z,110
2017-01-11T08:23:43.222Z,110
2017-01-11T08:24:53.082Z,120
2017-01-11T08:26:03.008Z,125
2017-01-11T08:27:12.843Z,125
2017-01-11T08:28:23.085Z,125
2017-01-11T08:29:32.913Z,130
2017-01-11T08:30:43.139Z,140
2017-01-11T08:31:53.388Z,150
2017-01-11T08:33:03.283Z,155
2017-01-11T08:34:13.570Z,160
2017-01-11T08:35:23.842Z,170
2017-01-11T08:36:34.091Z,185
2017-01-11T08:37:44.364Z,190
2017-01-11T08:38:54.661Z,190
2017-01-11T08:40:04.968Z,190
2017-01-11T08:41:14.865Z,195
2017-01-11T08:42:25.191Z,195
2017-01-11T08:43:35.441Z,195
2017-01-11T08:44:45.953Z,200
2017-01-11T08:45:55.776Z,200
2017-01-11T08:47:06.064Z,205
2017-01-11T08:48:16.302Z,205
2017-01-11T08:49:26.132Z,215
2017-01-11T08:50:36.013Z,225
2017-01-11T08:51:45.877Z,235
2017-01-11T08:52:55.707Z,250
2017-01-11T08:54:05.937Z,270
2017-01-11T08:55:16.173Z,280
2017-01-11T08:56:26.061Z,280
2017-01-11T08:57:36.294Z,285
2017-01-11T08:58:46.563Z,290
2017-01-11T08:59:55.989Z,300
2017-01-11T09:01:06.303Z,305
2017-01-11T09:02:16.609Z,315
2017-01-11T09:03:26.448Z,325
2017-01-11T09:04:36.301Z,345
2017-01-11T09:05:46.589Z,410
2017-01-11T09:06:56.821Z,465
2017-01-11T09:08:07.048Z,480
2017-01-11T09:09:17.470Z,455
2017-01-11T09:10:27.382Z,465
2017-01-11T09:11:37.217Z,465
2017-01-11T09:12:47.449Z,440
2017-01-11T09:13:56.899Z,385
2017-01-11T09:15:07.208Z,355
2017-01-11T09:16:17.115Z,320
2017-01-11T09:17:26.984Z,305
2017-01-11T09:18:37.218Z,295
2017-01-11T09:19:47.172Z,290
2017-01-11T09:20:57.424Z,285
2017-01-11T09:22:07.312Z,290
2017-01-11T09:23:17.650Z,295
2017-01-11T09:24:27.506Z,305
2017-01-11T09:25:37.745Z,300
2017-01-11T09:26:47.571Z,300
2017-01-11T09:27:57.830Z,305
2017-01-11T09:29:08.283Z,305
2017-01-11T09:30:17.759Z,305
2017-01-11T09:31:27.880Z,310
2017-01-11T09:32:37.708Z,310
2017-01-11T09:33:47.670Z,305
2017-01-11T09:34:57.505Z,300
2017-01-11T09:36:07.873Z,295
2017-01-11T09:37:18.111Z,295
2017-01-11T09:38:28.327Z,305
2017-01-11T09:39:38.164Z,310
2017-01-11T09:40:48.408Z,325
2017-01-11T09:41:57.837Z,345
2017-01-11T09:43:07.710Z,360
2017-01-11T09:44:18.137Z,375
2017-01-11T09:45:28.142Z,400
2017-01-11T09:46:38.484Z,405
2017-01-11T09:47:48.767Z,395
2017-01-11T09:48:59.064Z,360
2017-01-11T09:50:08.523Z,305
2017-01-11T09:51:18.367Z,280
2017-01-11T09:52:28.245Z,275
2017-01-11T09:53:37.722Z,300
2017-01-11T09:54:47.593Z,325
2017-01-11T09:55:57.883Z,350
2017-01-11T09:57:08.152Z,390
2017-01-11T09:58:18.391Z,430
2017-01-11T09:59:27.831Z,480
2017-01-11T10:00:37.785Z,495
2017-01-11T10:01:47.610Z,475
2017-01-11T10:02:57.839Z,435
2017-01-11T10:04:08.084Z,395
2017-01-11T10:05:18.420Z,380
2017-01-11T10:06:28.251Z,385
2017-01-11T10:07:38.613Z,365
2017-01-11T10:08:48.450Z,350
2017-01-11T10:09:58.293Z,320
2017-01-11T10:11:08.584Z,295
2017-01-11T10:12:18.427Z,270
2017-01-11T10:13:28.330Z,250
2017-01-11T10:14:38.260Z,235
2017-01-11T10:15:48.495Z,220
2017-01-11T10:16:58.347Z,200
2017-01-11T10:18:08.605Z,190
2017-01-11T10:19:18.868Z,190
2017-01-11T10:20:29.243Z,200
2017-01-11T10:21:39.516Z,195
2017-01-11T10:22:49.753Z,180
2017-01-11T10:23:59.985Z,175
2017-01-11T10:25:10.224Z,185
2017-01-11T10:26:20.490Z,195
2017-01-11T10:27:30.793Z,215
2017-01-11T10:28:40.628Z,235
2017-01-11T10:29:50.121Z,255
2017-01-11T10:31:00.370Z,270
2017-01-11T10:32:10.179Z,280
2017-01-11T10:33:20.079Z,305
2017-01-11T10:34:30.415Z,335
2017-01-11T10:35:40.277Z,360
2017-01-11T10:36:50.559Z,390
2017-01-11T10:38:00.408Z,415
2017-01-11T10:39:10.244Z,460
2017-01-11T10:40:20.498Z,490
2017-01-11T10:41:30.769Z,565
2017-01-11T10:42:40.627Z,505
2017-01-11T10:43:50.875Z,705
2017-01-11T10:45:01.115Z,435
2017-01-11T10:46:11.456Z,410
2017-01-11T10:47:21.306Z,385
2017-01-11T10:48:31.660Z,355
2017-01-11T10:49:41.509Z,340
2017-01-11T10:50:50.980Z,320
2017-01-11T10:52:01.204Z,275
2017-01-11T10:53:11.456Z,230
2017-01-11T10:54:21.813Z,200
2017-01-11T10:55:32.082Z,195
2017-01-11T10:56:41.981Z,215
2017-01-11T10:57:51.837Z,270
2017-01-11T10:59:01.262Z,565
2017-01-11T11:00:11.181Z,455
2017-01-11T11:01:21.422Z,530
2017-01-11T11:02:31.662Z,1000
2017-01-11T11:03:41.992Z,1340
2017-01-11T11:04:51.829Z,1810
2017-01-11T11:06:01.716Z,1120
2017-01-11T11:07:12.055Z,1160
2017-01-11T11:08:21.935Z,1400
2017-01-11T11:09:31.819Z,1325
2017-01-11T11:10:42.099Z,1665
2017-01-11T11:11:51.594Z,885
2017-01-11T11:13:01.438Z,375
2017-01-11T11:14:11.322Z,305
2017-01-11T11:15:21.158Z,255
2017-01-11T11:16:31.405Z,220
2017-01-11T11:17:41.679Z,205
2017-01-11T11:18:51.505Z,185
2017-01-11T11:20:01.780Z,165
2017-01-11T11:21:11.713Z,145
2017-01-11T11:22:21.959Z,175
2017-01-11T11:23:32.232Z,270
2017-01-11T11:24:42.091Z,330
2017-01-11T11:25:52.345Z,410
2017-01-11T11:27:02.673Z,440
2017-01-11T11:28:13.047Z,380
2017-01-11T11:29:23.285Z,295
2017-01-11T11:30:33.551Z,245
2017-01-11T11:31:43.779Z,245
2017-01-11T11:32:53.621Z,245
2017-01-11T11:34:03.902Z,235
2017-01-11T11:35:13.395Z,245
2017-01-11T11:36:23.918Z,275
2017-01-11T11:37:33.346Z,320
2017-01-11T11:38:43.593Z,315
2017-01-11T11:39:53.878Z,340
2017-01-11T11:41:04.150Z,320
2017-01-11T11:42:14.007Z,280
2017-01-11T11:43:23.847Z,250
2017-01-11T11:44:34.125Z,240
2017-01-11T11:45:43.957Z,255
2017-01-11T11:46:54.329Z,225
2017-01-11T11:48:04.193Z,220
2017-01-11T11:49:14.025Z,200
2017-01-11T11:50:23.457Z,195
2017-01-11T11:51:33.353Z,185
2017-01-11T11:52:43.210Z,180
2017-01-11T11:53:52.658Z,180
2017-01-11T11:55:02.486Z,170
2017-01-11T11:56:12.806Z,170
2017-01-11T11:57:23.077Z,145
2017-01-11T11:58:33.316Z,120
2017-01-11T11:59:43.582Z,110
2017-01-11T12:00:53.811Z,115
2017-01-11T12:02:03.688Z,120
2017-01-11T12:03:13.510Z,120
2017-01-11T12:04:23.114Z,105
2017-01-11T12:05:32.955Z,95
2017-01-11T12:06:43.190Z,100
2017-01-11T12:07:53.531Z,115
2017-01-11T12:09:03.469Z,125
2017-01-11T12:10:13.773Z,120
2017-01-11T12:11:24.036Z,115
2017-01-11T12:12:33.991Z,110
2017-01-11T12:13:44.301Z,100
2017-01-11T12:14:54.148Z,95
2017-01-11T12:16:03.980Z,90
2017-01-11T12:17:13.809Z,85
2017-01-11T12:18:24.118Z,90
2017-01-11T12:19:33.566Z,90
2017-01-11T12:20:43.833Z,85
2017-01-11T12:21:54.052Z,80
2017-01-11T12:23:04.315Z,80
2017-01-11T12:24:14.150Z,80
2017-01-11T12:25:24.475Z,75
2017-01-11T12:26:34.717Z,70
2017-01-11T12:27:44.614Z,80
2017-01-11T12:28:53.678Z,90
2017-01-11T12:30:04.064Z,95
2017-01-11T12:31:14.293Z,100
2017-01-11T12:32:23.733Z,110
2017-01-11T12:33:33.605Z,110
2017-01-11T12:34:43.872Z,100
2017-01-11T12:35:54.116Z,95
2017-01-11T12:37:04.392Z,90
2017-01-11T12:38:14.653Z,90
2017-01-11T12:39:24.578Z,90
2017-01-11T12:40:34.801Z,95
2017-01-11T12:41:44.714Z,95
2017-01-11T12:42:54.952Z,100
2017-01-11T12:44:04.812Z,100
2017-01-11T12:45:13.835Z,95
2017-01-11T12:46:23.721Z,95
2017-01-11T12:47:33.557Z,100
2017-01-11T12:48:43.805Z,95
2017-01-11T12:49:53.699Z,105
2017-01-11T12:51:03.981Z,105
2017-01-11T12:52:14.206Z,100
2017-01-11T12:53:23.287Z,100
2017-01-11T12:54:33.556Z,105
2017-01-11T12:55:42.983Z,110
2017-01-11T12:56:53.263Z,105
2017-01-11T12:58:02.688Z,110
2017-01-11T12:59:12.524Z,105
2017-01-11T13:00:22.416Z,100
2017-01-11T13:01:32.285Z,90
2017-01-11T13:02:42.527Z,80
2017-01-11T13:03:52.396Z,80
2017-01-11T13:05:02.255Z,90
2017-01-11T13:06:12.113Z,85
2017-01-11T13:07:21.936Z,85
2017-01-11T13:08:31.900Z,85
2017-01-11T13:09:41.741Z,90
2017-01-11T13:10:51.628Z,90
2017-01-11T13:12:01.221Z,80
2017-01-11T13:13:11.051Z,75
2017-01-11T13:14:21.339Z,80
2017-01-11T13:15:31.622Z,85
2017-01-11T13:16:41.482Z,80
2017-01-11T13:17:51.767Z,90
2017-01-11T13:19:02.029Z,85
2017-01-11T13:20:11.968Z,90
2017-01-11T13:21:21.831Z,90
2017-01-11T13:22:32.087Z,95
2017-01-11T13:23:41.959Z,90
2017-01-11T13:24:52.262Z,80
2017-01-11T13:26:02.717Z,70
2017-01-11T13:27:12.979Z,65
2017-01-11T13:28:23.277Z,60
2017-01-11T13:29:33.105Z,65
2017-01-11T13:30:43.345Z,60
2017-01-11T13:31:53.180Z,60
2017-01-11T13:33:02.640Z,60
2017-01-11T13:34:12.486Z,60
2017-01-11T13:35:22.369Z,60
2017-01-11T13:36:32.278Z,60
2017-01-11T13:37:42.260Z,60
2017-01-11T13:38:52.657Z,60
2017-01-11T13:40:02.495Z,60
2017-01-11T13:41:12.786Z,55
2017-01-11T13:42:22.634Z,55
2017-01-11T13:43:32.083Z,50
2017-01-11T13:44:42.659Z,45
2017-01-11T13:45:52.586Z,40
2017-01-11T13:47:02.417Z,40
2017-01-11T13:48:12.694Z,40
2017-01-11T13:49:22.968Z,40
2017-01-11T13:50:33.377Z,50
2017-01-11T13:51:43.615Z,45
2017-01-11T13:52:53.852Z,50
2017-01-11T13:54:03.793Z,50
2017-01-11T13:55:14.022Z,45
2017-01-11T13:56:24.252Z,45
2017-01-11T13:57:34.134Z,40
2017-01-11T13:58:44.374Z,35
2017-01-11T13:59:54.634Z,40
2017-01-11T14:01:03.687Z,50
2017-01-11T14:02:14.132Z,50
2017-01-11T14:03:23.582Z,50
2017-01-11T14:04:33.829Z,45
2017-01-11T14:05:43.697Z,50
2017-01-11T14:06:54.039Z,50
2017-01-11T14:08:04.350Z,45
2017-01-11T14:09:14.662Z,40
2017-01-11T14:10:25.071Z,45
2017-01-11T14:11:35.432Z,50
2017-01-11T14:12:45.369Z,50
2017-01-11T14:13:55.595Z,45
2017-01-11T14:15:05.842Z,40
2017-01-11T14:16:16.220Z,35
2017-01-11T14:17:26.047Z,35
2017-01-11T14:18:36.308Z,35
2017-01-11T14:19:46.598Z,35
2017-01-11T14:20:56.050Z,40
2017-01-11T14:22:05.524Z,40
2017-01-11T14:23:15.767Z,40
2017-01-11T14:24:26.112Z,40
2017-01-11T14:25:36.227Z,40
2017-01-11T14:26:46.521Z,35
2017-01-11T14:27:56.809Z,25
2017-01-11T14:29:06.284Z,25
2017-01-11T14:30:15.766Z,25
2017-01-11T14:31:25.623Z,25
2017-01-11T14:32:35.855Z,20
2017-01-11T14:33:45.756Z,25
2017-01-11T14:34:56.057Z,30
2017-01-11T14:36:05.892Z,25
2017-01-11T14:37:15.374Z,20
2017-01-11T14:38:24.831Z,25
2017-01-11T14:39:35.141Z,25
2017-01-11T14:40:45.371Z,25
2017-01-11T14:41:55.600Z,20
2017-01-11T14:43:05.450Z,20
2017-01-11T14:44:15.304Z,25
2017-01-11T14:45:25.206Z,20
2017-01-11T14:46:34.661Z,20
2017-01-11T14:47:44.910Z,25
2017-01-11T14:48:54.357Z,20
2017-01-11T14:50:04.242Z,15
2017-01-11T14:51:14.076Z,15
2017-01-11T14:52:24.307Z,15
2017-01-11T14:53:33.844Z,10
2017-01-11T14:54:43.696Z,10
2017-01-11T14:55:53.124Z,10
2017-01-11T14:57:02.569Z,10
2017-01-11T14:58:12.004Z,10
2017-01-11T14:59:21.836Z,10
2017-01-11T15:00:32.138Z,10
2017-01-11T15:01:41.997Z,10
2017-01-11T15:02:52.338Z,10
2017-01-11T15:04:02.634Z,10
2017-01-11T15:05:12.491Z,5
2017-01-11T15:06:21.926Z,5
2017-01-11T15:07:31.767Z,5
2017-01-11T15:08:41.615Z,5
2017-01-11T15:09:51.648Z,5
2017-01-11T15:11:02.047Z,5
2017-01-11T15:12:12.328Z,5
2017-01-11T15:13:22.575Z,5
2017-01-11T15:14:32.883Z,5
2017-01-11T15:15:43.121Z,5
2017-01-11T15:16:52.971Z,5
2017-01-11T15:18:03.216Z,5
2017-01-11T15:19:13.529Z,5
2017-01-11T15:20:23.364Z,5
2017-01-11T15:21:33.801Z,5
2017-01-11T15:22:44.130Z,5
2017-01-11T15:23:54.406Z,0
2017-01-11T15:25:03.927Z,0
2017-01-11T15:26:13.836Z,0
2017-01-11T15:27:23.808Z,0
2017-01-11T15:28:34.147Z,0
2017-01-11T15:29:44.419Z,0
2017-01-11T15:30:54.278Z,0
2017-01-11T15:32:04.165Z,0
2017-01-11T15:33:14.508Z,0
2017-01-11T15:34:23.962Z,0
2017-01-11T15:35:33.836Z,0
2017-01-11T15:36:43.326Z,0
2017-01-11T15:37:53.584Z,0
2017-01-11T15:39:02.630Z,0
2017-01-11T15:40:12.861Z,0
2017-01-11T15:41:22.351Z,0
2017-01-11T15:42:32.413Z,0
2017-01-11T15:43:42.332Z,0
2017-01-11T15:44:52.593Z,0
2017-01-11T15:46:02.440Z,0
2017-01-11T15:47:12.739Z,0
2017-01-11T15:48:22.640Z,0
2017-01-11T15:49:32.511Z,0
2017-01-11T15:50:41.952Z,0
2017-01-11T15:51:51.816Z,0
2017-01-11T15:53:02.129Z,0
2017-01-11T15:54:12.453Z,0
2017-01-11T15:55:22.698Z,0
2017-01-11T15:56:32.610Z,0
2017-01-11T15:57:42.843Z,0
2017-01-11T15:58:52.705Z,0
2017-01-11T16:00:02.580Z,0
2017-01-11T16:01:12.942Z,0
2017-01-11T16:02:22.794Z,0
2017-01-11T16:03:32.249Z,0
2017-01-11T16:04:42.495Z,0
2017-01-11T16:05:52.766Z,0
2017-01-11T16:07:02.655Z,0
2017-01-11T16:08:12.508Z,0
2017-01-11T16:09:22.345Z,0
2017-01-11T16:10:32.620Z,0
2017-01-11T16:11:42.909Z,0
2017-01-11T16:12:53.161Z,0
2017-01-11T16:14:03.061Z,0
2017-01-11T16:15:12.512Z,0
2017-01-11T16:16:22.016Z,0
2017-01-11T16:17:31.895Z,0
2017-01-11T16:18:42.194Z,0
2017-01-11T16:19:52.076Z,0
2017-01-11T16:21:02.351Z,0
2017-01-11T16:22:11.917Z,0
2017-01-11T16:23:21.425Z,0
2017-01-11T16:24:31.767Z,0
2017-01-11T16:25:42.053Z,0
2017-01-11T16:26:52.315Z,0
2017-01-11T16:28:02.169Z,0
2017-01-11T16:29:12.027Z,0
2017-01-11T16:30:21.970Z,0
2017-01-11T16:31:31.893Z,0
2017-01-11T16:32:42.200Z,0
2017-01-11T16:33:52.564Z,0
2017-01-11T16:35:03.065Z,0
2017-01-11T16:36:12.945Z,0
2017-01-11T16:37:23.270Z,0
2017-01-11T16:38:33.530Z,0
2017-01-11T16:39:43.800Z,0
2017-01-11T16:40:53.692Z,0
2017-01-11T16:42:04.004Z,0
2017-01-11T16:43:14.529Z,0
2017-01-11T16:44:23.958Z,0
2017-01-11T16:45:33.802Z,0
2017-01-11T16:46:44.098Z,0
2017-01-11T16:47:54.344Z,0
2017-01-11T16:49:04.257Z,0
2017-01-11T16:50:14.546Z,0